createdAt,value
2018-04-15T00:02:26.801Z,101709.00
2018-04-15T00:04:55.647Z,101705.29
2018-04-15T00:07:23.985Z,101688.31
2018-04-15T00:09:52.339Z,101690.45
2018-04-15T00:12:20.716Z,101686.67
2018-04-15T00:14:49.062Z,101688.03
2018-04-15T00:17:17.401Z,101692.59
2018-04-15T00:19:45.779Z,101681.54
2018-04-15T00:22:14.162Z,101685.97
2018-04-15T00:24:42.483Z,101685.54
2018-04-15T00:27:10.936Z,101685.11
2018-04-15T00:29:39.257Z,101683.61
2018-04-15T00:32:07.615Z,101686.95
2018-04-15T00:34:35.975Z,101690.35
2018-04-15T00:37:04.483Z,101687.63
2018-04-15T00:39:32.780Z,101691.20
2018-04-15T00:42:01.149Z,101685.73
2018-04-15T00:44:29.464Z,101678.63
2018-04-15T00:46:57.811Z,101681.81
2018-04-15T00:49:26.431Z,101679.89
2018-04-15T00:51:54.779Z,101684.43
2018-04-15T00:54:23.119Z,101676.98
2018-04-15T00:56:52.259Z,101669.27
2018-04-15T00:59:20.587Z,101672.48
2018-04-15T01:01:48.915Z,101663.58
2018-04-15T01:04:17.270Z,101661.08
2018-04-15T01:06:45.611Z,101661.47
2018-04-15T01:09:13.939Z,101666.41
2018-04-15T01:11:42.561Z,101661.72
2018-04-15T01:14:10.884Z,101654.45
2018-04-15T01:16:39.223Z,101654.95
2018-04-15T01:19:07.583Z,101655.38
2018-04-15T01:21:35.893Z,101656.80
2018-04-15T01:24:04.236Z,101648.11
2018-04-15T01:26:32.584Z,101647.18
2018-04-15T01:29:00.919Z,101647.89
2018-04-15T01:31:29.251Z,101649.39
2018-04-15T01:33:57.920Z,101642.12
2018-04-15T01:36:26.265Z,101637.77
2018-04-15T01:38:54.589Z,101635.48
2018-04-15T01:41:22.961Z,101624.72
2018-04-15T01:43:51.277Z,101620.45
2018-04-15T01:46:19.592Z,101624.58
2018-04-15T01:48:48.719Z,101627.72
2018-04-15T01:51:17.053Z,101629.28
2018-04-15T01:53:45.363Z,101620.23
2018-04-15T01:56:13.938Z,101619.23
2018-04-15T01:58:43.031Z,101621.44
2018-04-15T02:01:12.114Z,101618.86
2018-04-15T02:03:40.508Z,101615.63
2018-04-15T02:06:08.828Z,101619.41
2018-04-15T02:08:37.152Z,101620.27
2018-04-15T02:11:05.519Z,101617.34
2018-04-15T02:13:33.823Z,101616.64
2018-04-15T02:16:02.951Z,101617.40
2018-04-15T02:18:31.390Z,101608.31
2018-04-15T02:21:00.494Z,101604.27
2018-04-15T02:23:29.587Z,101601.05
2018-04-15T02:25:57.917Z,101603.12
2018-04-15T02:28:26.221Z,101605.12
2018-04-15T02:30:54.546Z,101602.11
2018-04-15T02:33:23.664Z,101602.68
2018-04-15T02:35:51.973Z,101601.36
2018-04-15T02:38:20.308Z,101591.64
2018-04-15T02:40:48.762Z,101588.06
2018-04-15T02:43:17.084Z,101591.91
2018-04-15T02:45:45.419Z,101586.23
2018-04-15T02:48:13.762Z,101582.69
2018-04-15T02:50:42.098Z,101569.22
2018-04-15T02:53:10.426Z,101567.95
2018-04-15T02:55:38.779Z,101577.23
2018-04-15T02:58:07.087Z,101576.63
2018-04-15T03:00:35.383Z,101574.33
2018-04-15T03:03:04.093Z,101564.55
2018-04-15T03:05:32.432Z,101561.67
2018-04-15T03:08:00.732Z,101556.05
2018-04-15T03:10:29.068Z,101553.52
2018-04-15T03:12:57.386Z,101548.47
2018-04-15T03:15:25.734Z,101547.38
2018-04-15T03:17:54.870Z,101536.91
2018-04-15T03:20:23.961Z,101539.02
2018-04-15T03:22:52.281Z,101540.41
2018-04-15T03:25:20.851Z,101542.39
2018-04-15T03:27:49.172Z,101537.98
2018-04-15T03:30:17.511Z,101535.82
2018-04-15T03:32:45.890Z,101548.36
2018-04-15T03:35:14.221Z,101545.37
2018-04-15T03:37:42.576Z,101547.22
2018-04-15T03:40:10.922Z,101546.97
2018-04-15T03:42:39.486Z,101549.47
2018-04-15T03:45:08.602Z,101549.19
2018-04-15T03:47:37.253Z,101552.11
2018-04-15T03:50:05.579Z,101546.30
2018-04-15T03:52:33.912Z,101549.09
2018-04-15T03:55:02.255Z,101536.92
2018-04-15T03:57:30.599Z,101537.33
2018-04-15T03:59:59.695Z,101533.55
2018-04-15T04:02:28.041Z,101520.95
2018-04-15T04:04:56.428Z,101524.31
2018-04-15T04:07:24.766Z,101520.81
2018-04-15T04:09:53.290Z,101522.59
2018-04-15T04:12:21.607Z,101523.22
2018-04-15T04:14:49.959Z,101527.07
2018-04-15T04:17:18.294Z,101517.11
2018-04-15T04:20:04.267Z,101519.73
2018-04-15T04:22:50.381Z,101516.62
2018-04-15T04:25:30.255Z,101509.14
2018-04-15T04:27:58.944Z,101506.30
2018-04-15T04:30:28.148Z,101507.95
2018-04-15T04:32:57.236Z,101517.56
2018-04-15T04:35:25.593Z,101509.58
2018-04-15T04:37:53.927Z,101506.38
2018-04-15T04:40:22.275Z,101509.94
2018-04-15T04:42:50.853Z,101513.28
2018-04-15T04:45:19.186Z,101506.59
2018-04-15T04:47:47.484Z,101514.86
2018-04-15T04:50:15.942Z,101517.48
2018-04-15T04:52:44.250Z,101518.98
2018-04-15T04:55:12.585Z,101523.33
2018-04-15T04:57:40.939Z,101518.91
2018-04-15T05:00:09.255Z,101520.20
2018-04-15T05:02:37.618Z,101512.14
2018-04-15T05:05:05.976Z,101516.41
2018-04-15T05:07:34.289Z,101509.30
2018-04-15T05:10:02.592Z,101507.73
2018-04-15T05:12:31.286Z,101520.48
2018-04-15T05:15:00.369Z,101511.29
2018-04-15T05:17:28.692Z,101508.57
2018-04-15T05:19:57.038Z,101498.70
2018-04-15T05:22:25.369Z,101498.39
2018-04-15T05:24:54.463Z,101500.76
2018-04-15T05:27:22.834Z,101500.26
2018-04-15T05:29:51.954Z,101501.05
2018-04-15T05:32:20.300Z,101499.21
2018-04-15T05:34:48.701Z,101502.11
2018-04-15T05:37:17.815Z,101496.64
2018-04-15T05:39:46.142Z,101494.66
2018-04-15T05:42:14.486Z,101497.39
2018-04-15T05:44:42.809Z,101495.68
2018-04-15T05:47:11.112Z,101493.44
2018-04-15T05:49:40.260Z,101488.70
2018-04-15T05:52:08.570Z,101490.70
2018-04-15T05:54:36.904Z,101485.34
2018-04-15T05:57:05.308Z,101490.67
2018-04-15T05:59:33.658Z,101485.24
2018-04-15T06:02:01.976Z,101485.97
2018-04-15T06:04:30.313Z,101485.94
2018-04-15T06:06:58.636Z,101480.65
2018-04-15T06:09:26.963Z,101482.27
2018-04-15T06:11:55.466Z,101485.45
2018-04-15T06:14:23.826Z,101493.67
2018-04-15T06:16:52.151Z,101489.71
2018-04-15T06:19:20.711Z,101484.78
2018-04-15T06:21:49.037Z,101494.66
2018-04-15T06:24:17.379Z,101491.30
2018-04-15T06:26:45.720Z,101487.05
2018-04-15T06:29:14.091Z,101482.62
2018-04-15T06:31:42.395Z,101483.56
2018-04-15T06:34:10.767Z,101480.84
2018-04-15T06:36:39.127Z,101482.22
2018-04-15T06:39:07.427Z,101481.44
2018-04-15T06:41:35.819Z,101477.94
2018-04-15T06:44:04.889Z,101478.77
2018-04-15T06:46:33.208Z,101474.02
2018-04-15T06:49:01.556Z,101478.95
2018-04-15T06:51:29.884Z,101468.39
2018-04-15T06:53:58.218Z,101470.20
2018-04-15T06:56:26.591Z,101465.49
2018-04-15T06:58:54.936Z,101472.45
2018-04-15T07:01:23.265Z,101469.02
2018-04-15T07:03:51.836Z,101467.81
2018-04-15T07:06:20.234Z,101466.59
2018-04-15T07:08:48.571Z,101468.34
2018-04-15T07:11:16.923Z,101468.86
2018-04-15T07:13:50.694Z,101472.34
2018-04-15T07:16:19.024Z,101479.97
2018-04-15T07:18:47.336Z,101477.23
2018-04-15T07:21:15.645Z,101483.11
2018-04-15T07:23:44.310Z,101484.52
2018-04-15T07:26:12.641Z,101488.89
2018-04-15T07:28:41.010Z,101487.00
2018-04-15T07:31:09.341Z,101484.17
2018-04-15T07:33:38.514Z,101482.75
2018-04-15T07:36:06.911Z,101480.73
2018-04-15T07:38:35.268Z,101476.09
2018-04-15T07:41:03.619Z,101469.12
2018-04-15T07:43:32.018Z,101474.83
2018-04-15T07:46:00.804Z,101472.80
2018-04-15T07:48:29.963Z,101470.05
2018-04-15T07:50:58.281Z,101467.44
2018-04-15T07:53:27.385Z,101466.41
2018-04-15T07:55:55.712Z,101462.72
2018-04-15T07:58:24.032Z,101466.77
2018-04-15T08:00:53.155Z,101465.06
2018-04-15T08:03:21.484Z,101461.07
2018-04-15T08:05:49.860Z,101459.71
2018-04-15T08:08:18.309Z,101454.55
2018-04-15T08:10:46.670Z,101454.02
2018-04-15T08:13:15.047Z,101446.59
2018-04-15T08:15:43.449Z,101445.78
2018-04-15T08:18:12.544Z,101442.96
2018-04-15T08:20:41.645Z,101449.89
2018-04-15T08:23:09.981Z,101450.75
2018-04-15T08:25:39.070Z,101438.02
2018-04-15T08:28:08.179Z,101445.43
2018-04-15T08:30:36.950Z,101439.30
2018-04-15T08:33:06.050Z,101446.63
2018-04-15T08:35:35.151Z,101439.05
2018-04-15T08:38:04.288Z,101441.88
2018-04-15T08:40:33.420Z,101436.87
2018-04-15T08:43:01.728Z,101437.56
2018-04-15T08:45:30.853Z,101438.42
2018-04-15T08:47:59.187Z,101447.35
2018-04-15T08:50:27.533Z,101446.77
2018-04-15T08:52:56.118Z,101453.02
2018-04-15T08:55:24.437Z,101448.13
2018-04-15T08:57:53.532Z,101454.00
2018-04-15T09:00:22.643Z,101451.86
2018-04-15T09:02:51.727Z,101448.25
2018-04-15T09:05:20.848Z,101455.06
2018-04-15T09:07:49.219Z,101452.67
2018-04-15T09:10:18.314Z,101453.11
2018-04-15T09:12:47.428Z,101455.48
2018-04-15T09:15:15.857Z,101458.89
2018-04-15T09:17:44.196Z,101448.84
2018-04-15T09:20:12.546Z,101445.10
2018-04-15T09:22:40.912Z,101446.87
2018-04-15T09:25:10.020Z,101440.57
2018-04-15T09:27:39.086Z,101438.46
2018-04-15T09:30:07.493Z,101435.14
2018-04-15T09:32:35.816Z,101432.76
2018-04-15T09:35:04.162Z,101431.82
2018-04-15T09:37:32.604Z,101425.34
2018-04-15T09:40:00.961Z,101421.09
2018-04-15T09:42:29.273Z,101423.30
2018-04-15T09:44:57.616Z,101421.44
2018-04-15T09:47:25.952Z,101420.67
2018-04-15T09:49:54.283Z,101417.09
2018-04-15T09:52:22.673Z,101416.33
2018-04-15T09:54:51.022Z,101416.23
2018-04-15T09:57:19.355Z,101406.61
2018-04-15T09:59:48.537Z,101406.44
2018-04-15T10:02:16.887Z,101403.45
2018-04-15T10:04:45.226Z,101405.67
2018-04-15T10:07:13.547Z,101402.11
2018-04-15T10:09:41.888Z,101404.70
2018-04-15T10:12:10.198Z,101401.05
2018-04-15T10:14:39.404Z,101393.23
2018-04-15T10:17:07.758Z,101392.09
2018-04-15T10:19:36.856Z,101384.86
2018-04-15T10:22:05.280Z,101386.77
2018-04-15T10:24:33.620Z,101386.33
2018-04-15T10:27:01.943Z,101384.11
2018-04-15T10:29:30.295Z,101374.55
2018-04-15T10:31:58.667Z,101367.86
2018-04-15T10:34:27.100Z,101362.73
2018-04-15T10:36:55.492Z,101364.33
2018-04-15T10:39:23.819Z,101359.98
2018-04-15T10:41:52.166Z,101356.54
2018-04-15T10:44:21.047Z,101358.44
2018-04-15T10:46:49.371Z,101354.55
2018-04-15T10:49:17.684Z,101352.75
2018-04-15T10:51:46.820Z,101351.35
2018-04-15T10:54:15.152Z,101346.66
2018-04-15T10:56:44.240Z,101345.14
2018-04-15T10:59:12.623Z,101343.89
2018-04-15T11:01:41.717Z,101336.53
2018-04-15T11:04:10.016Z,101337.45
2018-04-15T11:06:39.239Z,101329.94
2018-04-15T11:09:07.556Z,101325.27
2018-04-15T11:11:35.868Z,101318.23
2018-04-15T11:14:05.003Z,101319.30
2018-04-15T11:16:33.352Z,101314.74
2018-04-15T11:19:02.520Z,101313.09
2018-04-15T11:21:30.892Z,101316.53
2018-04-15T11:23:59.235Z,101311.19
2018-04-15T11:26:27.573Z,101310.68
2018-04-15T11:28:57.114Z,101316.95
2018-04-15T11:31:26.176Z,101312.70
2018-04-15T11:33:55.280Z,101300.24
2018-04-15T11:36:23.791Z,101294.09
2018-04-15T11:38:52.103Z,101292.42
2018-04-15T11:41:20.464Z,101291.78
2018-04-15T11:43:48.801Z,101288.70
2018-04-15T11:46:17.445Z,101286.82
2018-04-15T11:48:45.828Z,101278.55
2018-04-15T11:51:15.023Z,101279.58
2018-04-15T11:53:43.368Z,101277.16
2018-04-15T11:56:11.720Z,101279.67
2018-04-15T11:58:40.824Z,101271.69
2018-04-15T12:01:09.948Z,101270.83
2018-04-15T12:03:38.274Z,101264.53
2018-04-15T12:06:07.400Z,101269.95
2018-04-15T12:08:35.759Z,101260.42
2018-04-15T12:11:04.836Z,101263.77
2018-04-15T12:13:33.473Z,101256.61
2018-04-15T12:16:01.784Z,101258.14
2018-04-15T12:18:30.123Z,101253.38
2018-04-15T12:20:58.532Z,101249.80
2018-04-15T12:23:26.873Z,101248.43
2018-04-15T12:25:55.229Z,101246.62
2018-04-15T12:28:23.577Z,101241.91
2018-04-15T12:30:52.032Z,101243.48
2018-04-15T12:33:20.361Z,101250.55
2018-04-15T12:35:48.815Z,101250.97
2018-04-15T12:38:17.122Z,101242.02
2018-04-15T12:40:45.559Z,101236.61
2018-04-15T12:43:13.941Z,101239.09
2018-04-15T12:45:42.314Z,101230.06
2018-04-15T12:48:10.635Z,101221.34
2018-04-15T12:50:39.011Z,101224.59
2018-04-15T12:53:07.493Z,101222.34
2018-04-15T12:55:36.368Z,101209.14
2018-04-15T12:58:05.276Z,101215.77
2018-04-15T13:00:34.444Z,101215.48
2018-04-15T13:03:03.626Z,101214.73
2018-04-15T13:05:31.988Z,101211.80
2018-04-15T13:08:00.343Z,101213.95
2018-04-15T13:10:28.680Z,101206.79
2018-04-15T13:12:57.015Z,101205.54
2018-04-15T13:15:25.456Z,101205.17
2018-04-15T13:17:53.773Z,101207.79
2018-04-15T13:20:22.462Z,101200.74
2018-04-15T13:22:51.557Z,101202.60
2018-04-15T13:25:20.648Z,101192.59
2018-04-15T13:27:49.188Z,101198.30
2018-04-15T13:30:17.525Z,101187.36
2018-04-15T13:32:46.607Z,101194.39
2018-04-15T13:35:15.796Z,101188.87
2018-04-15T13:37:44.908Z,101180.95
2018-04-15T13:40:13.282Z,101178.61
2018-04-15T13:42:42.474Z,101172.05
2018-04-15T13:45:36.196Z,101178.10
2018-04-15T13:48:04.699Z,101177.09
2018-04-15T13:50:33.007Z,101169.45
2018-04-15T13:53:01.321Z,101164.14
2018-04-15T13:55:29.788Z,101167.80
2018-04-15T13:57:58.880Z,101162.61
2018-04-15T14:00:27.219Z,101157.42
2018-04-15T14:02:55.948Z,101159.16
2018-04-15T14:05:24.292Z,101158.45
2018-04-15T14:07:53.406Z,101151.52
2018-04-15T14:10:22.567Z,101145.22
2018-04-15T14:12:51.689Z,101148.70
2018-04-15T14:15:20.050Z,101147.52
2018-04-15T14:17:48.406Z,101147.33
2018-04-15T14:20:16.719Z,101146.06
2018-04-15T14:22:45.071Z,101144.27
2018-04-15T14:25:13.549Z,101141.69
2018-04-15T14:27:41.872Z,101138.72
2018-04-15T14:30:10.185Z,101144.23
2018-04-15T14:32:38.516Z,101144.75
2018-04-15T14:35:06.867Z,101140.73
2018-04-15T14:37:35.342Z,101148.25
2018-04-15T14:40:03.715Z,101144.45
2018-04-15T14:42:32.060Z,101137.00
2018-04-15T14:45:01.186Z,101133.48
2018-04-15T14:47:29.863Z,101135.86
2018-04-15T14:49:58.194Z,101125.44
2018-04-15T14:52:26.599Z,101134.87
2018-04-15T14:54:54.969Z,101133.05
2018-04-15T14:57:24.067Z,101125.33
2018-04-15T14:59:53.197Z,101124.23
2018-04-15T15:02:21.553Z,101120.03
2018-04-15T15:04:49.890Z,101125.31
2018-04-15T15:07:19.037Z,101131.34
2018-04-15T15:09:47.606Z,101127.20
2018-04-15T15:12:15.923Z,101127.11
2018-04-15T15:14:44.219Z,101124.44
2018-04-15T15:17:12.571Z,101119.62
2018-04-15T15:19:40.969Z,101119.69
2018-04-15T15:22:09.262Z,101122.61
2018-04-15T15:24:37.602Z,101122.52
2018-04-15T15:27:05.919Z,101125.17
2018-04-15T15:29:34.288Z,101121.76
2018-04-15T15:32:02.801Z,101122.97
2018-04-15T15:34:31.142Z,101126.92
2018-04-15T15:36:59.487Z,101127.30
2018-04-15T15:39:28.611Z,101118.04
2018-04-15T15:41:56.917Z,101118.63
2018-04-15T15:44:25.240Z,101125.24
2018-04-15T15:46:54.368Z,101126.80
2018-04-15T15:49:22.700Z,101124.07
2018-04-15T15:51:51.257Z,101128.37
2018-04-15T15:54:19.950Z,101123.50
2018-04-15T15:56:48.312Z,101122.78
2018-04-15T15:59:16.634Z,101125.14
2018-04-15T16:01:45.295Z,101125.00
2018-04-15T16:04:13.617Z,101124.61
2018-04-15T16:06:41.947Z,101123.75
2018-04-15T16:09:11.079Z,101126.81
2018-04-15T16:11:40.190Z,101128.02
2018-04-15T16:14:08.561Z,101135.34
2018-04-15T16:16:37.118Z,101136.87
2018-04-15T16:19:05.449Z,101137.49
2018-04-15T16:21:33.832Z,101130.59
2018-04-15T16:24:02.212Z,101133.28
2018-04-15T16:26:30.576Z,101130.53
2018-04-15T16:28:58.908Z,101138.02
2018-04-15T16:31:27.280Z,101133.48
2018-04-15T16:33:55.632Z,101124.79
2018-04-15T16:36:23.958Z,101124.20
2018-04-15T16:38:52.399Z,101118.08
2018-04-15T16:41:20.762Z,101117.66
2018-04-15T16:43:49.123Z,101116.58
2018-04-15T16:46:18.280Z,101122.30
2018-04-15T16:48:46.637Z,101110.86
2018-04-15T16:51:14.955Z,101115.32
2018-04-15T16:53:43.434Z,101115.11
2018-04-15T16:56:11.817Z,101120.49
2018-04-15T16:58:40.908Z,101123.91
2018-04-15T17:01:09.740Z,101120.55
2018-04-15T17:03:38.096Z,101121.14
2018-04-15T17:06:07.188Z,101115.41
2018-04-15T17:08:36.350Z,101115.95
2018-04-15T17:11:05.479Z,101114.08
2018-04-15T17:13:33.800Z,101116.81
2018-04-15T17:16:02.238Z,101117.46
2018-04-15T17:18:30.570Z,101114.17
2018-04-15T17:20:58.899Z,101118.93
2018-04-15T17:23:28.536Z,101117.12
2018-04-15T17:25:56.883Z,101110.12
2018-04-15T17:28:25.965Z,101110.38
2018-04-15T17:30:54.369Z,101112.69
2018-04-15T17:33:22.719Z,101111.37
2018-04-15T17:35:51.048Z,101111.73
2018-04-15T17:38:19.393Z,101104.37
2018-04-15T17:40:47.752Z,101098.39
2018-04-15T17:43:16.864Z,101105.77
2018-04-15T17:45:45.431Z,101100.96
2018-04-15T17:48:13.909Z,101100.16
2018-04-15T17:50:42.261Z,101093.44
2018-04-15T17:53:10.602Z,101104.48
2018-04-15T17:55:39.696Z,101103.18
2018-04-15T17:58:08.813Z,101111.56
2018-04-15T18:00:37.211Z,101109.13
2018-04-15T18:03:05.583Z,101115.89
2018-04-15T18:05:33.972Z,101107.92
2018-04-15T18:08:02.608Z,101116.06
2018-04-15T18:10:30.914Z,101122.39
2018-04-15T18:12:59.264Z,101127.92
2018-04-15T18:15:27.674Z,101132.45
2018-04-15T18:17:56.106Z,101138.73
2018-04-15T18:20:24.440Z,101130.83
2018-04-15T18:22:52.827Z,101139.25
2018-04-15T18:25:21.167Z,101141.95
2018-04-15T18:27:49.493Z,101147.55
2018-04-15T18:30:18.189Z,101150.59
2018-04-15T18:32:46.540Z,101146.55
2018-04-15T18:35:14.905Z,101149.07
2018-04-15T18:37:43.256Z,101143.92
2018-04-15T18:40:11.592Z,101138.84
2018-04-15T18:42:39.964Z,101145.76
2018-04-15T18:45:08.360Z,101145.11
2018-04-15T18:47:36.848Z,101150.92
2018-04-15T18:50:05.444Z,101151.81
2018-04-15T18:52:34.705Z,101144.59
2018-04-15T18:55:03.026Z,101145.20
2018-04-15T18:57:31.532Z,101147.61
2018-04-15T19:00:00.738Z,101143.45
2018-04-15T19:02:29.154Z,101141.35
2018-04-15T19:04:57.502Z,101144.60
2018-04-15T19:07:26.680Z,101146.25
2018-04-15T19:09:55.128Z,101140.92
2018-04-15T19:12:23.551Z,101131.52
2018-04-15T19:14:52.224Z,101137.31
2018-04-15T19:17:20.609Z,101137.83
2018-04-15T19:19:48.988Z,101141.73
2018-04-15T19:22:17.378Z,101143.56
2018-04-15T19:24:45.747Z,101142.00
2018-04-15T19:27:14.129Z,101145.16
2018-04-15T19:29:42.657Z,101142.30
2018-04-15T19:32:11.706Z,101141.17
2018-04-15T19:34:40.156Z,101145.64
2018-04-15T19:37:09.096Z,101150.89
2018-04-15T19:39:38.257Z,101140.92
2018-04-15T19:42:06.678Z,101143.80
2018-04-15T19:44:35.066Z,101147.02
2018-04-15T19:47:03.519Z,101137.03
2018-04-15T19:49:31.898Z,101133.59
2018-04-15T19:52:00.382Z,101129.02
2018-04-15T19:54:28.764Z,101131.25
2018-04-15T19:56:57.276Z,101123.75
2018-04-15T19:59:25.838Z,101121.32
2018-04-15T20:01:55.112Z,101122.23
2018-04-15T20:04:23.592Z,101133.13
2018-04-15T20:06:52.067Z,101125.55
2018-04-15T20:09:20.471Z,101125.67
2018-04-15T20:11:48.837Z,101124.06
2018-04-15T20:14:17.367Z,101124.25
2018-04-15T20:16:45.825Z,101128.22
2018-04-15T20:19:14.996Z,101126.70
2018-04-15T20:21:43.585Z,101127.09
2018-04-15T20:24:12.029Z,101129.98
2018-04-15T20:26:40.467Z,101122.06
2018-04-15T20:29:08.857Z,101120.38
2018-04-15T20:31:37.985Z,101112.87
2018-04-15T20:34:06.389Z,101117.05
2018-04-15T20:36:35.503Z,101121.86
2018-04-15T20:39:03.872Z,101116.59
2018-04-15T20:41:32.241Z,101111.32
2018-04-15T20:44:00.918Z,101110.50
2018-04-15T20:46:29.261Z,101111.85
2018-04-15T20:48:58.375Z,101119.95
2018-04-15T20:51:26.747Z,101120.02
2018-04-15T20:53:55.113Z,101116.66
2018-04-15T20:56:23.656Z,101121.81
2018-04-15T20:58:52.015Z,101115.39
2018-04-15T21:01:20.359Z,101104.94
2018-04-15T21:03:49.461Z,101106.15
2018-04-15T21:06:18.656Z,101110.48
2018-04-15T21:08:46.998Z,101110.86
2018-04-15T21:11:15.344Z,101112.44
2018-04-15T21:13:43.676Z,101111.14
2018-04-15T21:16:12.008Z,101119.34
2018-04-15T21:18:40.331Z,101117.28
2018-04-15T21:21:08.700Z,101118.73
2018-04-15T21:23:37.090Z,101115.22
2018-04-15T21:26:05.420Z,101114.11
2018-04-15T21:28:33.938Z,101114.30
2018-04-15T21:31:02.264Z,101113.84
2018-04-15T21:33:30.583Z,101112.73
2018-04-15T21:35:59.083Z,101107.47
2018-04-15T21:38:27.413Z,101101.28
2018-04-15T21:40:55.826Z,101099.48
2018-04-15T21:43:24.175Z,101097.97
2018-04-15T21:45:52.544Z,101095.66
2018-04-15T21:48:21.023Z,101089.97
2018-04-15T21:50:49.628Z,101093.05
2018-04-15T21:53:17.987Z,101104.37
2018-04-15T21:55:46.315Z,101117.23
2018-04-15T21:58:15.070Z,101112.32
2018-04-15T22:00:43.407Z,101116.23
2018-04-15T22:03:11.734Z,101124.30
2018-04-15T22:05:40.135Z,101130.66
2018-04-15T22:08:08.460Z,101129.14
2018-04-15T22:10:36.776Z,101126.67
2018-04-15T22:13:07.726Z,101130.23
2018-04-15T22:15:36.113Z,101149.02
2018-04-15T22:18:04.441Z,101144.75
2018-04-15T22:20:32.862Z,101122.98
2018-04-15T22:23:01.192Z,101096.42
2018-04-15T22:25:30.296Z,101078.29
2018-04-15T22:27:58.645Z,101075.62
2018-04-15T22:30:26.962Z,101077.48
2018-04-15T22:32:55.313Z,101070.93
2018-04-15T22:35:24.218Z,101076.91
2018-04-15T22:37:52.555Z,101082.66
2018-04-15T22:40:20.977Z,101082.20
2018-04-15T22:42:49.509Z,101077.70
2018-04-15T22:45:17.831Z,101085.28
2018-04-15T22:47:52.574Z,101086.57
2018-04-15T22:50:20.931Z,101077.48
2018-04-15T22:52:50.054Z,101086.02
2018-04-15T22:55:18.619Z,101083.98
2018-04-15T22:57:46.968Z,101083.64
2018-04-15T23:00:15.338Z,101089.47
2018-04-15T23:02:43.696Z,101080.35
2018-04-15T23:05:12.007Z,101078.06
2018-04-15T23:07:40.325Z,101084.89
2018-04-15T23:10:09.462Z,101079.39
2018-04-15T23:12:37.793Z,101073.14
2018-04-15T23:15:06.128Z,101068.12
2018-04-15T23:17:34.975Z,101071.16
2018-04-15T23:20:03.311Z,101073.12
2018-04-15T23:22:31.708Z,101078.30
2018-04-15T23:25:00.072Z,101069.44
2018-04-15T23:27:28.384Z,101082.80
2018-04-15T23:29:57.481Z,101087.67
2018-04-15T23:32:25.849Z,101084.11
2018-04-15T23:34:54.351Z,101079.93
2018-04-15T23:37:22.666Z,101070.83
2018-04-15T23:39:51.116Z,101069.30
2018-04-15T23:42:19.464Z,101067.09
2018-04-15T23:44:48.553Z,101058.51
2018-04-15T23:47:16.920Z,101058.59
2018-04-15T23:49:45.224Z,101063.90
2018-04-15T23:52:14.324Z,101055.03
2018-04-15T23:54:42.669Z,101057.32
2018-04-15T23:57:11.064Z,101056.55
2018-04-15T23:59:39.567Z,101051.30
